createdAt,value
2019-05-14T01:47:52.694Z,25.02
2019-05-14T02:02:58.952Z,27.98
2019-05-14T03:39:00.351Z,38.35
2019-05-14T03:42:25.633Z,31.05
2019-05-14T03:46:09.710Z,32.80
2019-05-14T03:49:01.367Z,37.38
2019-05-14T03:52:29.244Z,25.95
2019-05-14T03:56:10.960Z,34.55
2019-05-14T03:59:28.837Z,28.85
2019-05-14T04:02:39.141Z,27.05
2019-05-14T04:06:21.111Z,34.88
2019-05-14T04:09:49.358Z,27.77
2019-05-14T04:13:14.706Z,37.23
2019-05-14T04:17:08.910Z,37.40
2019-05-14T04:20:49.914Z,33.92
2019-05-14T04:24:12.628Z,39.60
2019-05-14T04:27:40.076Z,36.17
2019-05-14T04:31:22.981Z,29.63
2019-05-14T04:34:49.854Z,34.13
2019-05-14T04:38:02.634Z,35.30
2019-05-14T04:41:11.641Z,34.92
2019-05-14T04:44:54.614Z,36.45
2019-05-14T04:48:42.365Z,33.02
2019-05-14T04:52:29.169Z,35.45
2019-05-14T05:00:19.496Z,27.95
2019-05-14T05:03:43.960Z,37.05
2019-05-14T05:07:10.120Z,38.00
2019-05-14T05:10:35.497Z,35.80
2019-05-14T05:13:44.219Z,28.32
2019-05-14T05:17:42.602Z,35.65
2019-05-14T05:20:20.251Z,32.03
2019-05-14T05:23:45.819Z,34.33
2019-05-14T05:27:28.886Z,28.45
2019-05-14T05:31:11.544Z,31.65
2019-05-14T05:34:39.133Z,33.40
2019-05-14T05:38:05.019Z,37.38
2019-05-14T05:41:30.869Z,35.08
2019-05-14T05:44:58.641Z,34.27
2019-05-14T05:48:42.220Z,34.98
2019-05-14T05:52:28.302Z,35.25
2019-05-14T05:56:11.723Z,32.65
2019-05-14T05:59:59.151Z,31.82
2019-05-14T06:03:10.696Z,32.95
2019-05-14T06:06:54.077Z,33.10
2019-05-14T06:10:39.715Z,29.20
2019-05-14T06:14:04.979Z,27.80
2019-05-14T06:17:49.271Z,32.78
2019-05-14T06:21:34.367Z,33.83
2019-05-14T06:25:02.698Z,27.27
2019-05-14T06:27:53.612Z,27.58
2019-05-14T06:31:02.744Z,31.87
2019-05-14T06:33:55.637Z,31.48
2019-05-14T06:37:21.553Z,28.02
2019-05-14T06:40:48.980Z,29.15
2019-05-14T06:43:59.147Z,30.00
2019-05-14T06:47:09.286Z,29.35
2019-05-14T06:50:39.154Z,28.42
2019-05-14T06:54:24.785Z,28.00
2019-05-14T06:58:09.185Z,26.15
2019-05-14T07:01:43.223Z,28.73
2019-05-14T07:04:59.102Z,28.55
2019-05-14T07:08:52.328Z,27.17
2019-05-14T07:12:09.003Z,27.07
2019-05-14T07:15:55.138Z,28.07
2019-05-14T07:19:38.554Z,26.80
2019-05-14T07:22:30.687Z,25.02
2019-05-14T07:25:58.502Z,26.85
2019-05-14T07:29:40.713Z,25.95
2019-05-14T07:33:25.383Z,25.60
2019-05-14T07:37:09.382Z,26.50
2019-05-14T07:40:52.353Z,24.87
2019-05-14T07:44:44.976Z,25.32
2019-05-14T07:48:29.655Z,26.07
2019-05-14T07:52:11.799Z,23.92
2019-05-14T07:55:41.217Z,24.77
2019-05-14T07:58:50.262Z,25.00
2019-05-14T08:02:16.408Z,25.88
2019-05-14T08:05:58.834Z,25.75
2019-05-14T08:09:24.096Z,23.70
2019-05-14T08:12:01.702Z,23.40
2019-05-14T08:14:46.010Z,21.68
2019-05-14T08:17:11.843Z,21.30
2019-05-14T08:19:49.803Z,23.83
2019-05-14T08:22:24.077Z,20.15
2019-05-14T08:25:02.511Z,18.75
2019-05-14T08:27:38.885Z,22.77
2019-05-14T08:30:23.213Z,22.22
2019-05-14T08:32:58.315Z,22.55
2019-05-14T08:35:34.152Z,21.33
2019-05-14T08:38:14.315Z,19.65
2019-05-14T08:43:45.711Z,20.90
2019-05-14T08:46:20.210Z,22.00
2019-05-14T08:48:54.744Z,20.20
2019-05-14T08:51:29.757Z,19.73
2019-05-14T08:54:04.290Z,18.50
2019-05-14T08:56:39.112Z,20.02
2019-05-14T08:59:14.785Z,16.12
2019-05-14T09:02:01.809Z,18.55
2019-05-14T09:04:30.218Z,19.40
2019-05-14T09:07:06.167Z,20.60
2019-05-14T09:09:41.012Z,17.05
2019-05-14T09:12:15.473Z,16.20
2019-05-14T09:14:49.812Z,17.57
2019-05-14T09:17:24.183Z,18.48
2019-05-14T09:20:06.199Z,17.45
2019-05-14T09:22:34.628Z,18.48
2019-05-14T09:25:09.641Z,20.48
2019-05-14T09:27:43.852Z,16.10
2019-05-14T09:30:18.647Z,16.12
2019-05-14T09:32:52.937Z,17.67
2019-05-14T09:35:29.212Z,18.27
2019-05-14T09:38:03.424Z,18.48
2019-05-14T09:40:39.721Z,16.00
2019-05-14T09:43:14.002Z,16.37
2019-05-14T09:45:49.457Z,18.07
2019-05-14T09:48:24.295Z,19.07
2019-05-14T09:50:58.921Z,17.95
2019-05-14T09:53:33.488Z,18.80
2019-05-14T09:56:09.189Z,18.85
2019-05-14T09:58:43.829Z,19.70
2019-05-14T10:01:19.433Z,19.30
2019-05-14T10:03:53.998Z,21.87
2019-05-14T10:06:28.666Z,20.20
2019-05-14T10:09:03.205Z,18.95
2019-05-14T10:11:38.324Z,20.88
2019-05-14T10:14:12.726Z,18.80
2019-05-14T10:16:49.058Z,17.57
2019-05-14T10:19:23.472Z,17.70
2019-05-14T10:21:58.773Z,17.80
2019-05-14T10:24:33.473Z,14.93
2019-05-14T10:27:09.861Z,15.03
2019-05-14T10:29:43.518Z,17.73
2019-05-14T10:32:18.671Z,17.07
2019-05-14T10:34:53.424Z,15.70
2019-05-14T10:37:28.807Z,16.57
2019-05-14T10:40:03.235Z,15.08
2019-05-14T10:42:40.223Z,16.40
2019-05-14T10:45:14.038Z,16.07
2019-05-14T10:47:49.399Z,15.55
2019-05-14T10:50:24.090Z,16.62
2019-05-14T10:52:59.438Z,17.52
2019-05-14T10:55:34.013Z,14.10
2019-05-14T10:58:10.367Z,28.62
2019-05-14T11:00:45.235Z,18.37
2019-05-14T11:03:20.497Z,19.20
2019-05-14T11:05:54.931Z,17.87
2019-05-14T11:08:29.858Z,18.10
2019-05-14T11:11:04.417Z,17.40
2019-05-14T11:13:39.486Z,15.08
2019-05-14T11:16:13.808Z,16.05
2019-05-14T11:18:51.194Z,22.62
2019-05-14T11:21:30.174Z,18.23
2019-05-14T11:24:09.216Z,17.82
2019-05-14T11:26:42.359Z,16.85
2019-05-14T11:29:18.798Z,17.90
2019-05-14T11:31:53.331Z,17.20
2019-05-14T11:34:35.723Z,19.05
2019-05-14T11:37:10.490Z,17.75
2019-05-14T11:39:45.312Z,17.12
2019-05-14T11:42:20.001Z,17.32
2019-05-14T11:44:54.791Z,16.00
2019-05-14T11:47:29.787Z,16.65
2019-05-14T11:50:04.489Z,18.50
2019-05-14T11:52:39.636Z,18.35
2019-05-14T11:55:18.511Z,20.27
2019-05-14T11:57:51.141Z,29.15
2019-05-14T12:00:29.305Z,18.92
2019-05-14T12:03:02.193Z,17.62
2019-05-14T12:05:38.837Z,19.27
2019-05-14T12:08:12.976Z,17.80
2019-05-14T12:10:52.908Z,17.07
2019-05-14T12:16:18.344Z,18.40
2019-05-14T12:19:18.756Z,20.32
2019-05-14T12:22:06.331Z,17.23
2019-05-14T12:24:41.312Z,21.75
2019-05-14T12:27:15.619Z,32.65
2019-05-14T12:29:50.728Z,18.87
2019-05-14T12:32:31.483Z,19.12
2019-05-14T12:35:08.572Z,19.82
2019-05-14T12:37:43.065Z,19.65
2019-05-14T12:40:19.364Z,19.98
2019-05-14T12:42:58.573Z,20.72
2019-05-14T12:45:31.657Z,17.42
2019-05-14T12:48:09.314Z,18.85
2019-05-14T12:50:43.932Z,20.15
2019-05-14T12:53:28.794Z,19.17
2019-05-14T12:56:02.918Z,18.67
2019-05-14T12:58:45.485Z,23.80
2019-05-14T13:01:25.406Z,23.45
2019-05-14T13:03:59.716Z,19.05
2019-05-14T13:06:40.049Z,20.80
2019-05-14T13:09:21.757Z,20.00
2019-05-14T13:11:59.005Z,18.92
2019-05-14T13:14:34.762Z,20.02
2019-05-14T13:17:12.315Z,19.57
2019-05-14T13:19:48.758Z,21.37
2019-05-14T13:22:38.225Z,19.77
2019-05-14T13:25:02.831Z,18.37
2019-05-14T13:27:42.288Z,19.48
2019-05-14T13:30:18.719Z,19.42
2019-05-14T13:32:54.394Z,19.15
2019-05-14T13:35:34.103Z,20.62
2019-05-14T13:38:14.354Z,18.82
2019-05-14T13:40:55.002Z,17.48
2019-05-14T13:43:30.735Z,18.85
2019-05-14T13:46:09.955Z,19.82
2019-05-14T13:48:43.324Z,21.33
2019-05-14T13:51:19.919Z,21.00
2019-05-14T13:53:58.953Z,20.43
2019-05-14T13:56:33.757Z,19.95
2019-05-14T13:59:14.960Z,19.65
2019-05-14T14:01:49.918Z,17.05
2019-05-14T14:04:29.638Z,20.20
2019-05-14T14:07:09.340Z,19.95
2019-05-14T14:09:44.291Z,18.40
2019-05-14T14:12:24.663Z,20.15
2019-05-14T14:14:58.457Z,22.22
2019-05-14T14:17:33.959Z,20.52
2019-05-14T14:23:21.162Z,20.77
2019-05-14T14:25:45.495Z,21.42
2019-05-14T14:31:16.024Z,22.48
2019-05-14T14:33:56.846Z,20.62
2019-05-14T14:36:38.621Z,20.88
2019-05-14T14:39:13.880Z,20.20
2019-05-14T14:41:49.307Z,21.70
2019-05-14T14:44:29.180Z,20.00
2019-05-14T14:47:04.951Z,18.27
2019-05-14T14:49:42.854Z,21.40
2019-05-14T14:52:19.997Z,20.77
2019-05-14T14:54:55.291Z,21.95
2019-05-14T14:57:33.675Z,21.30
2019-05-14T15:00:11.432Z,22.52
2019-05-14T15:02:52.416Z,22.32
2019-05-14T15:05:30.218Z,19.98
2019-05-14T15:08:10.574Z,20.02
2019-05-14T15:10:45.516Z,20.90
2019-05-14T15:13:21.219Z,21.05
2019-05-14T15:16:01.101Z,20.32
2019-05-14T15:18:39.106Z,20.02
2019-05-14T15:21:48.998Z,20.45
2019-05-14T15:24:27.933Z,20.37
2019-05-14T15:27:08.305Z,19.02
2019-05-14T15:29:42.856Z,19.00
2019-05-14T15:32:19.744Z,20.60
2019-05-14T15:34:53.506Z,19.20
2019-05-14T15:37:31.601Z,17.85
2019-05-14T15:40:05.772Z,19.50
2019-05-14T15:42:49.870Z,20.10
2019-05-14T15:45:28.758Z,20.08
2019-05-14T15:48:21.023Z,20.17
2019-05-14T15:51:00.213Z,18.77
2019-05-14T15:53:38.518Z,19.40
2019-05-14T15:56:12.051Z,19.87
2019-05-14T15:58:50.608Z,20.70
2019-05-14T16:01:28.402Z,20.40
2019-05-14T16:04:05.360Z,21.20
2019-05-14T16:06:39.774Z,20.65
2019-05-14T16:09:19.434Z,20.70
2019-05-14T16:11:53.926Z,20.20
2019-05-14T16:14:30.024Z,21.30
2019-05-14T16:17:05.687Z,20.60
2019-05-14T16:19:41.234Z,20.05
2019-05-14T16:22:19.519Z,20.80
2019-05-14T16:24:57.060Z,20.68
2019-05-14T16:27:30.043Z,19.42
2019-05-14T16:30:04.990Z,20.02
2019-05-14T16:32:40.647Z,20.43
2019-05-14T16:35:21.024Z,20.48
2019-05-14T16:37:53.541Z,19.60
2019-05-14T16:40:28.837Z,20.48
2019-05-14T16:43:04.519Z,20.90
2019-05-14T16:45:39.616Z,19.32
2019-05-14T16:48:15.377Z,20.40
2019-05-14T16:50:50.157Z,19.95
2019-05-14T16:53:26.013Z,19.67
2019-05-14T16:56:00.479Z,19.62
2019-05-14T16:58:34.807Z,20.02
2019-05-14T17:01:09.849Z,19.15
2019-05-14T17:03:44.760Z,21.10
2019-05-14T17:06:19.475Z,20.27
2019-05-14T17:08:54.351Z,20.40
2019-05-14T17:11:28.770Z,19.30
2019-05-14T17:14:02.934Z,19.80
2019-05-14T17:16:37.497Z,19.67
2019-05-14T17:19:11.857Z,19.40
2019-05-14T17:21:48.559Z,19.02
2019-05-14T17:24:22.060Z,22.75
2019-05-14T17:26:58.215Z,19.48
2019-05-14T17:29:31.898Z,19.95
2019-05-14T17:32:06.468Z,19.42
2019-05-14T17:34:40.802Z,21.75
2019-05-14T17:37:16.145Z,21.93
2019-05-14T17:39:50.068Z,19.77
2019-05-14T17:42:24.694Z,19.42
2019-05-14T17:44:59.180Z,20.27
2019-05-14T17:47:33.613Z,20.00
2019-05-14T17:50:09.127Z,19.27
2019-05-14T17:52:45.164Z,19.70
2019-05-14T17:55:19.108Z,19.57
2019-05-14T17:57:58.395Z,18.85
2019-05-14T18:00:29.255Z,19.02
2019-05-14T18:03:03.723Z,19.62
2019-05-14T18:05:38.033Z,19.92
2019-05-14T18:08:12.151Z,18.37
2019-05-14T18:10:46.517Z,19.98
2019-05-14T18:13:20.709Z,19.37
2019-05-14T18:15:55.491Z,19.32
2019-05-14T18:18:30.151Z,19.48
2019-05-14T18:21:04.887Z,19.37
2019-05-14T18:23:41.948Z,19.42
2019-05-14T18:26:14.944Z,20.32
2019-05-14T18:28:49.417Z,19.27
2019-05-14T18:31:23.675Z,19.98
2019-05-14T18:33:58.806Z,19.02
2019-05-14T18:36:33.560Z,19.82
2019-05-14T18:39:09.535Z,18.85
2019-05-14T18:41:44.243Z,19.62
2019-05-14T18:44:18.980Z,20.15
2019-05-14T18:46:53.958Z,18.98
2019-05-14T18:49:28.823Z,19.92
2019-05-14T18:52:03.598Z,20.40
2019-05-14T18:54:38.706Z,20.20
2019-05-14T18:57:13.579Z,20.12
2019-05-14T18:59:49.322Z,20.43
2019-05-14T19:02:23.716Z,21.10
2019-05-14T19:04:58.101Z,19.50
2019-05-14T19:07:35.070Z,19.75
2019-05-14T19:10:11.882Z,19.65
2019-05-14T19:12:54.393Z,19.23
2019-05-14T19:15:28.858Z,21.07
2019-05-14T19:18:04.648Z,20.48
2019-05-14T19:20:39.316Z,20.17
2019-05-14T19:23:13.789Z,20.43
2019-05-14T19:25:48.509Z,19.45
2019-05-14T19:28:22.942Z,20.10
2019-05-14T19:30:59.511Z,19.65
2019-05-14T19:33:33.416Z,19.62
2019-05-14T19:36:08.840Z,19.75
2019-05-14T19:38:42.875Z,19.70
2019-05-14T19:41:21.025Z,19.40
2019-05-14T19:43:53.061Z,19.02
2019-05-14T19:46:29.122Z,18.25
2019-05-14T19:49:03.318Z,19.73
2019-05-14T19:51:38.697Z,19.27
2019-05-14T19:54:13.581Z,19.23
2019-05-14T19:56:56.370Z,19.85
2019-05-14T19:59:25.829Z,19.20
2019-05-14T20:01:59.277Z,19.77
2019-05-14T20:04:33.630Z,18.75
2019-05-14T20:07:08.925Z,19.57
2019-05-14T20:09:43.418Z,20.10
2019-05-14T20:12:18.334Z,19.40
2019-05-14T20:14:52.934Z,20.60
2019-05-14T20:17:28.336Z,21.07
2019-05-14T20:20:03.213Z,19.90
2019-05-14T20:22:39.284Z,18.80
2019-05-14T20:25:12.982Z,19.07
2019-05-14T20:27:47.995Z,19.40
2019-05-14T20:30:22.665Z,20.90
2019-05-14T20:32:59.224Z,19.90
2019-05-14T20:35:34.993Z,19.42
2019-05-14T20:38:09.146Z,19.57
2019-05-14T20:40:43.572Z,20.23
2019-05-14T20:43:18.650Z,19.00
2019-05-14T20:45:53.219Z,19.90
2019-05-14T20:48:28.129Z,18.37
2019-05-14T20:51:02.657Z,19.52
2019-05-14T20:53:39.421Z,20.65
2019-05-14T20:56:12.756Z,21.37
2019-05-14T20:58:48.194Z,19.95
2019-05-14T21:01:22.439Z,19.62
2019-05-14T21:03:59.033Z,19.70
2019-05-14T21:06:32.616Z,20.65
2019-05-14T21:09:08.431Z,20.40
2019-05-14T21:11:42.919Z,19.12
2019-05-14T21:14:18.289Z,19.55
2019-05-14T21:16:52.713Z,18.85
2019-05-14T21:19:28.311Z,19.37
2019-05-14T21:22:03.315Z,19.02
2019-05-14T21:24:39.248Z,19.20
2019-05-14T21:27:13.964Z,20.55
2019-05-14T21:29:48.861Z,20.68
2019-05-14T21:32:23.622Z,19.87
2019-05-14T21:34:58.548Z,19.98
2019-05-14T21:37:33.306Z,20.95
2019-05-14T21:40:11.536Z,19.87
2019-05-14T21:42:48.598Z,19.40
2019-05-14T21:45:21.971Z,18.15
2019-05-14T21:47:56.133Z,19.17
2019-05-14T21:50:30.570Z,19.27
2019-05-14T21:53:04.943Z,19.65
2019-05-14T21:55:39.873Z,19.07
2019-05-14T21:58:14.057Z,19.70
2019-05-14T22:00:51.249Z,19.48
2019-05-14T22:03:27.901Z,17.98
2019-05-14T22:06:01.753Z,19.10
2019-05-14T22:08:39.040Z,19.95
2019-05-14T22:11:12.341Z,18.57
2019-05-14T22:13:46.988Z,18.60
2019-05-14T22:16:21.427Z,19.40
2019-05-14T22:18:55.825Z,21.12
2019-05-14T22:21:30.493Z,18.95
2019-05-14T22:24:04.797Z,20.35
2019-05-14T22:26:39.180Z,19.17
2019-05-14T22:29:13.415Z,18.92
2019-05-14T22:31:48.264Z,20.10
2019-05-14T22:34:22.568Z,20.12
2019-05-14T22:36:58.126Z,18.55
2019-05-14T22:39:33.054Z,18.65
2019-05-14T22:42:09.186Z,19.85
2019-05-14T22:44:43.146Z,19.32
2019-05-14T22:47:18.828Z,19.95
2019-05-14T22:49:52.967Z,19.10
2019-05-14T22:52:28.448Z,20.08
2019-05-14T22:55:03.012Z,18.52
2019-05-14T22:57:39.275Z,19.48
2019-05-14T23:00:14.377Z,18.23
2019-05-14T23:02:49.520Z,20.10
2019-05-14T23:05:24.019Z,19.45
2019-05-14T23:07:58.547Z,19.92
2019-05-14T23:10:32.919Z,19.95
2019-05-14T23:13:09.178Z,21.12
2019-05-14T23:15:42.595Z,18.32
2019-05-14T23:18:18.147Z,22.77
2019-05-14T23:20:53.076Z,23.00
2019-05-14T23:23:28.155Z,22.20
2019-05-14T23:26:02.487Z,23.20
2019-05-14T23:28:42.578Z,22.60
2019-05-14T23:31:12.448Z,23.38
2019-05-14T23:33:48.816Z,16.32
2019-05-14T23:36:22.314Z,23.87
2019-05-14T23:38:59.139Z,16.42
2019-05-14T23:41:33.632Z,14.68
2019-05-14T23:44:08.342Z,24.75
2019-05-14T23:46:42.821Z,20.52
2019-05-14T23:49:18.418Z,18.27
2019-05-14T23:51:53.189Z,11.03
2019-05-14T23:54:29.116Z,22.80
2019-05-14T23:57:03.346Z,23.02
2019-05-14T23:59:39.604Z,16.40
